createdAt,value
2022-11-16T00:00:29.919Z,61.27
2022-11-16T00:01:36.408Z,60.42
2022-11-16T00:02:38.378Z,59.72
2022-11-16T00:03:41.236Z,58.90
2022-11-16T00:04:43.161Z,57.86
2022-11-16T00:05:44.994Z,58.04
2022-11-16T00:06:49.832Z,58.91
2022-11-16T00:07:51.711Z,59.99
2022-11-16T00:09:18.922Z,61.14
2022-11-16T00:10:21.021Z,62.89
2022-11-16T00:11:23.016Z,64.45
2022-11-16T00:12:24.860Z,65.01
2022-11-16T00:13:26.854Z,64.47
2022-11-16T00:14:34.113Z,63.41
2022-11-16T00:15:35.985Z,62.22
2022-11-16T00:16:38.986Z,61.08
2022-11-16T00:17:40.866Z,60.12
2022-11-16T00:18:44.038Z,59.31
2022-11-16T00:19:47.980Z,58.02
2022-11-16T00:20:51.002Z,57.52
2022-11-16T00:21:53.648Z,58.10
2022-11-16T00:22:55.535Z,59.09
2022-11-16T00:23:57.804Z,60.20
2022-11-16T00:24:59.641Z,61.33
2022-11-16T00:26:06.330Z,62.39
2022-11-16T00:27:08.290Z,63.91
2022-11-16T00:28:11.347Z,64.89
2022-11-16T00:29:21.837Z,64.68
2022-11-16T00:30:23.723Z,63.66
2022-11-16T00:31:26.237Z,62.58
2022-11-16T00:32:28.258Z,61.52
2022-11-16T00:33:30.513Z,60.54
2022-11-16T00:34:32.665Z,59.86
2022-11-16T00:35:39.763Z,58.79
2022-11-16T00:36:41.777Z,57.56
2022-11-16T00:37:43.675Z,57.68
2022-11-16T00:38:45.752Z,58.53
2022-11-16T00:39:48.433Z,59.52
2022-11-16T00:40:50.561Z,60.74
2022-11-16T00:41:52.490Z,61.88
2022-11-16T00:42:54.467Z,63.13
2022-11-16T00:43:56.837Z,64.64
2022-11-16T00:44:58.813Z,65.00
2022-11-16T00:46:00.920Z,64.42
2022-11-16T00:47:04.027Z,63.55
2022-11-16T00:48:06.688Z,62.38
2022-11-16T00:49:09.057Z,61.35
2022-11-16T00:50:11.119Z,60.55
2022-11-16T00:51:13.355Z,59.88
2022-11-16T00:52:16.862Z,59.28
2022-11-16T00:53:20.723Z,58.07
2022-11-16T00:54:22.773Z,57.65
2022-11-16T00:55:25.323Z,58.32
2022-11-16T00:56:27.483Z,59.29
2022-11-16T00:57:29.348Z,60.16
2022-11-16T00:58:31.800Z,61.74
2022-11-16T00:59:38.191Z,63.37
2022-11-16T01:00:41.277Z,64.95
2022-11-16T01:01:43.228Z,65.26
2022-11-16T01:02:45.265Z,64.68
2022-11-16T01:03:48.131Z,63.71
2022-11-16T01:04:50.299Z,62.60
2022-11-16T01:05:52.199Z,61.61
2022-11-16T01:06:54.174Z,60.97
2022-11-16T01:07:59.369Z,60.08
2022-11-16T01:09:01.665Z,59.42
2022-11-16T01:10:14.274Z,58.36
2022-11-16T01:11:36.626Z,57.79
2022-11-16T01:12:38.724Z,58.76
2022-11-16T01:13:40.578Z,59.80
2022-11-16T01:14:45.354Z,60.98
2022-11-16T01:15:48.448Z,62.30
2022-11-16T01:16:50.838Z,63.86
2022-11-16T01:17:54.810Z,65.00
2022-11-16T01:18:56.788Z,64.82
2022-11-16T01:19:58.869Z,63.99
2022-11-16T01:21:00.797Z,62.91
2022-11-16T01:22:02.808Z,61.88
2022-11-16T01:23:04.933Z,60.95
2022-11-16T01:24:06.918Z,60.17
2022-11-16T01:25:10.361Z,59.48
2022-11-16T01:26:13.053Z,58.45
2022-11-16T01:27:16.389Z,57.77
2022-11-16T01:28:19.808Z,58.28
2022-11-16T01:29:25.870Z,59.33
2022-11-16T01:30:31.462Z,60.62
2022-11-16T01:31:43.389Z,61.94
2022-11-16T01:32:45.338Z,62.98
2022-11-16T01:33:47.760Z,64.60
2022-11-16T01:34:55.208Z,65.05
2022-11-16T01:36:03.481Z,64.37
2022-11-16T01:37:05.455Z,63.43
2022-11-16T01:38:10.243Z,62.50
2022-11-16T01:39:14.126Z,61.45
2022-11-16T01:40:21.184Z,60.58
2022-11-16T01:41:26.056Z,59.91
2022-11-16T01:42:33.800Z,59.16
2022-11-16T01:43:58.727Z,58.05
2022-11-16T01:45:16.827Z,58.24
2022-11-16T01:46:19.673Z,59.34
2022-11-16T01:47:22.259Z,60.69
2022-11-16T01:48:30.366Z,61.71
2022-11-16T01:49:36.337Z,62.65
2022-11-16T01:50:39.668Z,64.42
2022-11-16T01:51:47.790Z,65.30
2022-11-16T01:53:00.852Z,64.99
2022-11-16T01:54:12.560Z,63.72
2022-11-16T01:55:27.752Z,62.43
2022-11-16T01:56:44.550Z,61.29
2022-11-16T01:57:59.140Z,60.27
2022-11-16T01:59:03.313Z,59.55
2022-11-16T02:00:09.462Z,58.36
2022-11-16T02:01:19.947Z,57.59
2022-11-16T02:02:24.721Z,58.18
2022-11-16T02:03:26.999Z,59.26
2022-11-16T02:04:29.903Z,60.43
2022-11-16T02:06:03.974Z,61.66
2022-11-16T02:07:26.943Z,62.84
2022-11-16T02:09:10.865Z,65.00
2022-11-16T02:10:55.017Z,64.75
2022-11-16T02:12:22.875Z,63.09
2022-11-16T02:13:46.511Z,61.69
2022-11-16T02:15:16.171Z,60.57
2022-11-16T02:16:53.189Z,59.62
2022-11-16T02:18:08.977Z,58.13
2022-11-16T02:19:37.222Z,57.87
2022-11-16T02:21:00.434Z,59.12
2022-11-16T02:22:25.644Z,60.64
2022-11-16T02:23:43.513Z,62.26
2022-11-16T02:25:08.280Z,64.08
2022-11-16T02:26:39.251Z,65.03
2022-11-16T02:28:14.315Z,63.98
2022-11-16T02:29:34.453Z,62.25
2022-11-16T02:30:38.211Z,61.09
2022-11-16T02:31:51.784Z,60.18
2022-11-16T02:33:04.854Z,59.27
2022-11-16T02:34:13.055Z,57.89
2022-11-16T02:35:20.732Z,57.64
2022-11-16T02:36:25.634Z,58.53
2022-11-16T02:37:34.806Z,59.69
2022-11-16T02:38:45.288Z,60.91
2022-11-16T02:39:53.292Z,62.00
2022-11-16T02:41:05.790Z,63.57
2022-11-16T02:42:15.341Z,65.25
2022-11-16T02:43:29.966Z,65.23
2022-11-16T02:44:40.147Z,63.98
2022-11-16T02:45:50.567Z,62.75
2022-11-16T02:47:00.230Z,61.55
2022-11-16T02:48:11.225Z,60.55
2022-11-16T02:49:19.530Z,59.69
2022-11-16T02:50:23.908Z,58.68
2022-11-16T02:51:29.599Z,57.59
2022-11-16T02:52:32.594Z,57.88
2022-11-16T02:53:42.940Z,58.86
2022-11-16T02:54:45.190Z,60.20
2022-11-16T02:55:47.872Z,61.14
2022-11-16T02:57:02.186Z,61.77
2022-11-16T02:58:09.371Z,63.46
2022-11-16T02:59:16.465Z,64.98
2022-11-16T03:00:36.008Z,65.18
2022-11-16T03:01:51.309Z,64.21
2022-11-16T03:03:01.792Z,63.04
2022-11-16T03:04:33.006Z,61.74
2022-11-16T03:05:53.105Z,60.37
2022-11-16T03:06:58.470Z,59.40
2022-11-16T03:08:17.675Z,58.04
2022-11-16T03:09:27.601Z,57.46
2022-11-16T03:10:49.264Z,58.29
2022-11-16T03:11:59.841Z,59.70
2022-11-16T03:13:08.391Z,61.00
2022-11-16T03:14:16.889Z,62.20
2022-11-16T03:15:18.901Z,63.60
2022-11-16T03:16:28.614Z,64.95
2022-11-16T03:17:38.790Z,64.96
2022-11-16T03:18:46.549Z,63.99
2022-11-16T03:20:07.762Z,62.72
2022-11-16T03:21:25.603Z,61.35
2022-11-16T03:22:54.801Z,60.23
2022-11-16T03:23:57.660Z,59.18
2022-11-16T03:24:59.824Z,57.89
2022-11-16T03:26:09.344Z,57.51
2022-11-16T03:27:35.251Z,58.07
2022-11-16T03:28:52.307Z,59.56
2022-11-16T03:30:10.872Z,61.01
2022-11-16T03:31:32.918Z,62.33
2022-11-16T03:32:51.323Z,64.58
2022-11-16T03:34:01.034Z,65.49
2022-11-16T03:35:12.845Z,64.93
2022-11-16T03:36:34.116Z,63.65
2022-11-16T03:37:39.657Z,62.24
2022-11-16T03:38:47.863Z,61.23
2022-11-16T03:39:53.387Z,60.25
2022-11-16T03:41:01.912Z,59.48
2022-11-16T03:42:09.365Z,58.29
2022-11-16T03:43:11.948Z,57.70
2022-11-16T03:44:17.819Z,58.31
2022-11-16T03:45:21.329Z,59.31
2022-11-16T03:46:24.352Z,60.44
2022-11-16T03:47:26.186Z,61.71
2022-11-16T03:48:38.100Z,62.82
2022-11-16T03:49:48.200Z,64.78
2022-11-16T03:50:52.688Z,65.14
2022-11-16T03:51:54.767Z,64.50
2022-11-16T03:52:57.367Z,63.49
2022-11-16T03:53:59.345Z,62.48
2022-11-16T03:55:01.224Z,61.44
2022-11-16T03:56:04.301Z,60.54
2022-11-16T03:57:06.849Z,59.82
2022-11-16T03:58:08.600Z,59.07
2022-11-16T03:59:10.500Z,57.85
2022-11-16T04:00:12.847Z,57.63
2022-11-16T04:01:17.531Z,58.47
2022-11-16T04:02:19.794Z,59.58
2022-11-16T04:03:22.991Z,60.83
2022-11-16T04:04:43.615Z,62.08
2022-11-16T04:06:03.940Z,64.07
2022-11-16T04:07:24.335Z,65.18
2022-11-16T04:08:45.013Z,64.47
2022-11-16T04:10:05.743Z,63.05
2022-11-16T04:11:31.721Z,61.83
2022-11-16T04:12:52.353Z,60.47
2022-11-16T04:14:12.856Z,59.59
2022-11-16T04:15:34.299Z,58.20
2022-11-16T04:16:54.731Z,57.66
2022-11-16T04:18:15.012Z,58.48
2022-11-16T04:19:35.414Z,60.07
2022-11-16T04:20:55.524Z,61.56
2022-11-16T04:22:23.298Z,63.29
2022-11-16T04:23:43.809Z,64.94
2022-11-16T04:24:54.714Z,64.60
2022-11-16T04:25:57.528Z,63.50
2022-11-16T04:27:24.606Z,62.50
2022-11-16T04:28:32.081Z,61.05
2022-11-16T04:29:37.177Z,60.23
2022-11-16T04:31:12.754Z,59.56
2022-11-16T04:32:34.854Z,57.88
2022-11-16T04:33:55.895Z,57.98
2022-11-16T04:35:16.736Z,59.13
2022-11-16T04:36:37.229Z,60.30
2022-11-16T04:37:52.716Z,62.01
2022-11-16T04:39:03.142Z,64.17
2022-11-16T04:40:05.472Z,65.10
2022-11-16T04:41:27.317Z,65.06
2022-11-16T04:42:29.087Z,63.91
2022-11-16T04:43:30.846Z,62.87
2022-11-16T04:44:55.597Z,61.84
2022-11-16T04:46:17.919Z,60.68
2022-11-16T04:47:19.721Z,59.74
2022-11-16T04:48:21.999Z,59.05
2022-11-16T04:49:26.207Z,57.84
2022-11-16T04:50:28.259Z,57.82
2022-11-16T04:51:30.428Z,58.64
2022-11-16T04:52:32.490Z,59.59
2022-11-16T04:53:34.451Z,60.89
2022-11-16T04:54:42.671Z,61.96
2022-11-16T04:55:44.780Z,63.41
2022-11-16T04:56:46.970Z,65.11
2022-11-16T04:57:48.743Z,65.47
2022-11-16T04:58:51.228Z,64.89
2022-11-16T04:59:53.310Z,63.88
2022-11-16T05:00:55.183Z,62.84
2022-11-16T05:02:09.284Z,61.90
2022-11-16T05:03:18.904Z,60.68
2022-11-16T05:04:20.785Z,60.11
2022-11-16T05:05:22.749Z,59.35
2022-11-16T05:06:25.182Z,58.09
2022-11-16T05:07:27.017Z,57.62
2022-11-16T05:08:35.508Z,58.44
2022-11-16T05:09:51.067Z,59.72
2022-11-16T05:10:52.919Z,61.26
2022-11-16T05:11:54.713Z,62.39
2022-11-16T05:12:57.674Z,64.02
2022-11-16T05:13:59.798Z,65.12
2022-11-16T05:15:01.987Z,64.93
2022-11-16T05:16:05.957Z,64.02
2022-11-16T05:17:07.995Z,63.09
2022-11-16T05:18:09.873Z,62.01
2022-11-16T05:19:30.097Z,61.01
2022-11-16T05:20:51.142Z,60.04
2022-11-16T05:21:52.950Z,59.30
2022-11-16T05:22:56.721Z,57.98
2022-11-16T05:24:18.461Z,57.43
2022-11-16T05:25:20.310Z,58.31
2022-11-16T05:26:22.236Z,59.32
2022-11-16T05:27:26.349Z,60.55
2022-11-16T05:28:28.273Z,61.66
2022-11-16T05:29:31.088Z,62.79
2022-11-16T05:30:32.868Z,64.48
2022-11-16T05:31:40.139Z,65.24
2022-11-16T05:32:43.451Z,64.73
2022-11-16T05:33:45.388Z,63.78
2022-11-16T05:34:48.509Z,62.62
2022-11-16T05:35:51.663Z,61.66
2022-11-16T05:36:54.463Z,60.65
2022-11-16T05:37:56.653Z,59.88
2022-11-16T05:38:58.403Z,58.98
2022-11-16T05:40:01.598Z,57.81
2022-11-16T05:41:12.186Z,57.79
2022-11-16T05:42:14.114Z,58.59
2022-11-16T05:43:16.123Z,59.34
2022-11-16T05:44:25.082Z,60.60
2022-11-16T05:45:27.088Z,62.02
2022-11-16T05:46:28.918Z,63.25
2022-11-16T05:47:33.400Z,65.01
2022-11-16T05:48:35.991Z,65.45
2022-11-16T05:49:38.695Z,64.80
2022-11-16T05:50:42.917Z,63.86
2022-11-16T05:51:54.208Z,62.56
2022-11-16T05:52:56.035Z,61.66
2022-11-16T05:53:57.903Z,60.64
2022-11-16T05:55:00.907Z,59.74
2022-11-16T05:56:03.144Z,58.88
2022-11-16T05:57:05.573Z,57.76
2022-11-16T05:58:07.411Z,57.76
2022-11-16T05:59:15.229Z,58.42
2022-11-16T06:00:18.969Z,59.10
2022-11-16T06:01:22.488Z,60.56
2022-11-16T06:02:24.686Z,61.99
2022-11-16T06:03:29.566Z,63.37
2022-11-16T06:04:32.526Z,64.95
2022-11-16T06:05:40.241Z,65.12
2022-11-16T06:06:43.061Z,64.31
2022-11-16T06:07:46.766Z,63.17
2022-11-16T06:08:48.573Z,62.13
2022-11-16T06:09:53.578Z,61.10
2022-11-16T06:10:55.931Z,60.21
2022-11-16T06:11:57.916Z,59.48
2022-11-16T06:12:59.691Z,58.30
2022-11-16T06:14:01.453Z,57.34
2022-11-16T06:15:03.457Z,57.66
2022-11-16T06:16:05.967Z,58.76
2022-11-16T06:17:08.708Z,59.99
2022-11-16T06:18:10.736Z,61.27
2022-11-16T06:19:12.583Z,62.58
2022-11-16T06:20:14.625Z,64.15
2022-11-16T06:21:19.347Z,65.15
2022-11-16T06:22:21.160Z,64.91
2022-11-16T06:23:23.603Z,64.09
2022-11-16T06:24:26.043Z,63.10
2022-11-16T06:25:28.012Z,62.03
2022-11-16T06:26:29.739Z,61.06
2022-11-16T06:27:31.495Z,60.35
2022-11-16T06:28:34.514Z,59.63
2022-11-16T06:29:36.703Z,58.82
2022-11-16T06:30:40.581Z,57.79
2022-11-16T06:31:42.694Z,57.89
2022-11-16T06:32:45.460Z,58.89
2022-11-16T06:33:47.248Z,60.04
2022-11-16T06:34:55.883Z,61.27
2022-11-16T06:35:57.958Z,62.44
2022-11-16T06:37:00.122Z,64.02
2022-11-16T06:38:01.916Z,65.17
2022-11-16T06:39:03.840Z,65.04
2022-11-16T06:40:11.014Z,64.02
2022-11-16T06:41:15.995Z,62.93
2022-11-16T06:42:20.197Z,61.82
2022-11-16T06:43:23.262Z,61.06
2022-11-16T06:44:25.087Z,60.29
2022-11-16T06:45:31.825Z,59.56
2022-11-16T06:46:34.679Z,58.38
2022-11-16T06:47:37.361Z,57.65
2022-11-16T06:48:39.491Z,58.14
2022-11-16T06:49:44.368Z,59.31
2022-11-16T06:50:52.506Z,60.67
2022-11-16T06:51:54.860Z,61.89
2022-11-16T06:52:56.624Z,63.23
2022-11-16T06:53:58.502Z,64.81
2022-11-16T06:55:02.407Z,65.15
2022-11-16T06:56:07.488Z,64.59
2022-11-16T06:57:15.798Z,63.41
2022-11-16T06:58:18.200Z,62.45
2022-11-16T06:59:20.052Z,61.35
2022-11-16T07:00:22.073Z,60.44
2022-11-16T07:01:24.624Z,59.72
2022-11-16T07:02:29.434Z,58.69
2022-11-16T07:03:32.469Z,57.63
2022-11-16T07:04:36.158Z,57.80
2022-11-16T07:05:40.907Z,58.61
2022-11-16T07:06:45.272Z,59.54
2022-11-16T07:07:47.947Z,60.97
2022-11-16T07:08:50.330Z,62.26
2022-11-16T07:09:54.362Z,63.78
2022-11-16T07:10:59.027Z,65.05
2022-11-16T07:12:04.993Z,65.00
2022-11-16T07:13:10.303Z,64.15
2022-11-16T07:14:13.290Z,63.05
2022-11-16T07:15:17.583Z,62.06
2022-11-16T07:16:21.076Z,61.01
2022-11-16T07:17:30.037Z,60.35
2022-11-16T07:18:35.193Z,59.38
2022-11-16T07:19:37.315Z,58.15
2022-11-16T07:20:39.207Z,57.53
2022-11-16T07:21:41.059Z,57.96
2022-11-16T07:22:47.026Z,59.11
2022-11-16T07:23:49.327Z,60.20
2022-11-16T07:24:53.870Z,61.18
2022-11-16T07:26:00.216Z,62.05
2022-11-16T07:27:08.878Z,63.02
2022-11-16T07:28:11.794Z,65.02
2022-11-16T07:29:15.367Z,65.82
2022-11-16T07:30:21.276Z,65.33
2022-11-16T07:31:31.893Z,64.21
2022-11-16T07:32:59.302Z,62.74
2022-11-16T07:34:21.226Z,61.53
2022-11-16T07:35:48.628Z,60.52
2022-11-16T07:36:50.919Z,59.74
2022-11-16T07:37:52.774Z,58.92
2022-11-16T07:38:54.721Z,57.82
2022-11-16T07:39:56.513Z,57.79
2022-11-16T07:41:06.415Z,58.60
2022-11-16T07:42:12.314Z,60.05
2022-11-16T07:43:29.509Z,61.42
2022-11-16T07:45:20.992Z,63.92
2022-11-16T07:46:45.873Z,65.29
2022-11-16T07:47:52.330Z,65.05
2022-11-16T07:49:01.211Z,64.07
2022-11-16T07:50:21.503Z,62.77
2022-11-16T07:51:23.852Z,61.53
2022-11-16T07:52:38.295Z,60.41
2022-11-16T07:53:55.861Z,59.63
2022-11-16T07:54:57.738Z,58.74
2022-11-16T07:56:01.849Z,57.53
2022-11-16T07:57:04.059Z,57.62
2022-11-16T07:58:05.960Z,58.33
2022-11-16T07:59:08.960Z,59.24
2022-11-16T08:00:14.093Z,60.38
2022-11-16T08:01:19.064Z,61.99
2022-11-16T08:02:21.245Z,63.60
2022-11-16T08:03:24.927Z,65.05
2022-11-16T08:04:28.011Z,65.22
2022-11-16T08:05:30.135Z,64.44
2022-11-16T08:06:32.206Z,63.40
2022-11-16T08:07:35.554Z,62.35
2022-11-16T08:08:38.155Z,61.35
2022-11-16T08:09:40.782Z,60.53
2022-11-16T08:10:43.507Z,59.81
2022-11-16T08:11:47.098Z,58.78
2022-11-16T08:12:49.174Z,57.63
2022-11-16T08:13:53.503Z,57.73
2022-11-16T08:14:55.414Z,58.39
2022-11-16T08:16:11.618Z,59.34
2022-11-16T08:17:13.507Z,60.91
2022-11-16T08:18:15.378Z,61.90
2022-11-16T08:19:17.233Z,63.13
2022-11-16T08:20:19.016Z,64.72
2022-11-16T08:21:22.560Z,65.22
2022-11-16T08:22:24.652Z,64.66
2022-11-16T08:23:28.676Z,63.69
2022-11-16T08:24:30.433Z,62.52
2022-11-16T08:25:32.356Z,61.45
2022-11-16T08:26:34.949Z,60.57
2022-11-16T08:27:40.768Z,59.70
2022-11-16T08:28:44.717Z,58.76
2022-11-16T08:29:46.645Z,57.67
2022-11-16T08:30:53.665Z,57.67
2022-11-16T08:31:56.248Z,58.72
2022-11-16T08:32:58.374Z,59.92
2022-11-16T08:34:00.937Z,61.08
2022-11-16T08:35:03.130Z,61.55
2022-11-16T08:36:13.763Z,62.63
2022-11-16T08:37:16.737Z,64.85
2022-11-16T08:38:20.191Z,65.47
2022-11-16T08:39:22.066Z,65.05
2022-11-16T08:40:24.578Z,63.99
2022-11-16T08:41:26.516Z,62.93
2022-11-16T08:42:28.634Z,61.91
2022-11-16T08:43:31.057Z,61.23
2022-11-16T08:44:32.799Z,60.19
2022-11-16T08:45:38.347Z,59.51
2022-11-16T08:46:40.382Z,58.34
2022-11-16T08:48:03.248Z,57.53
2022-11-16T08:49:06.273Z,58.20
2022-11-16T08:50:08.346Z,59.28
2022-11-16T08:51:20.151Z,60.30
2022-11-16T08:52:27.795Z,61.60
2022-11-16T08:53:29.877Z,62.00
2022-11-16T08:54:32.202Z,63.39
2022-11-16T08:55:34.018Z,65.25
2022-11-16T08:56:35.873Z,65.81
2022-11-16T08:57:37.969Z,65.35
2022-11-16T08:58:44.333Z,64.52
2022-11-16T08:59:47.293Z,63.01
2022-11-16T09:00:49.277Z,61.86
2022-11-16T09:01:51.174Z,60.88
2022-11-16T09:02:52.942Z,60.17
2022-11-16T09:03:55.154Z,59.49
2022-11-16T09:04:57.172Z,58.24
2022-11-16T09:05:59.502Z,57.55
2022-11-16T09:07:01.284Z,57.79
2022-11-16T09:08:03.114Z,58.46
2022-11-16T09:09:04.997Z,59.72
2022-11-16T09:10:07.592Z,60.75
2022-11-16T09:11:12.503Z,61.66
2022-11-16T09:12:14.247Z,63.00
2022-11-16T09:13:15.950Z,64.79
2022-11-16T09:14:17.871Z,65.39
2022-11-16T09:15:20.810Z,64.91
2022-11-16T09:16:23.188Z,63.98
2022-11-16T09:17:24.909Z,63.14
2022-11-16T09:18:27.983Z,61.83
2022-11-16T09:19:29.679Z,60.74
2022-11-16T09:20:31.390Z,59.96
2022-11-16T09:21:33.132Z,59.03
2022-11-16T09:22:35.189Z,57.85
2022-11-16T09:23:37.040Z,57.64
2022-11-16T09:24:38.825Z,58.30
2022-11-16T09:25:40.533Z,59.27
2022-11-16T09:26:42.273Z,60.43
2022-11-16T09:27:43.973Z,61.48
2022-11-16T09:28:46.267Z,62.62
2022-11-16T09:29:48.024Z,64.12
2022-11-16T09:30:51.546Z,64.99
2022-11-16T09:31:54.250Z,64.68
2022-11-16T09:32:58.475Z,63.69
2022-11-16T09:34:00.310Z,62.35
2022-11-16T09:35:02.018Z,61.09
2022-11-16T09:36:07.139Z,60.14
2022-11-16T09:37:09.322Z,59.51
2022-11-16T09:38:13.749Z,58.32
2022-11-16T09:39:30.664Z,57.27
2022-11-16T09:40:37.819Z,57.64
2022-11-16T09:42:03.850Z,58.70
2022-11-16T09:43:44.027Z,60.11
2022-11-16T09:45:07.693Z,61.75
2022-11-16T09:46:27.017Z,63.37
2022-11-16T09:47:49.802Z,64.95
2022-11-16T09:48:58.184Z,64.53
2022-11-16T09:50:04.693Z,63.39
2022-11-16T09:51:12.276Z,62.16
2022-11-16T09:52:27.980Z,61.11
2022-11-16T09:53:42.396Z,59.83
2022-11-16T09:54:47.323Z,58.76
2022-11-16T09:55:53.331Z,57.46
2022-11-16T09:57:02.114Z,57.53
2022-11-16T09:58:15.516Z,58.50
2022-11-16T09:59:51.894Z,59.73
2022-11-16T10:01:06.495Z,61.32
2022-11-16T10:02:31.556Z,62.52
2022-11-16T10:03:43.564Z,64.67
2022-11-16T10:05:14.515Z,65.10
2022-11-16T10:06:22.216Z,63.86
2022-11-16T10:07:33.183Z,62.67
2022-11-16T10:08:43.299Z,61.41
2022-11-16T10:09:46.576Z,60.32
2022-11-16T10:11:30.333Z,59.52
2022-11-16T10:12:31.956Z,57.56
2022-11-16T10:13:52.104Z,57.33
2022-11-16T10:15:24.646Z,58.35
2022-11-16T10:16:56.737Z,59.52
2022-11-16T10:18:25.051Z,61.28
2022-11-16T10:19:43.697Z,63.31
2022-11-16T10:21:04.378Z,65.21
2022-11-16T10:22:20.712Z,65.08
2022-11-16T10:23:31.468Z,63.86
2022-11-16T10:24:57.989Z,62.52
2022-11-16T10:26:21.876Z,61.08
2022-11-16T10:27:51.701Z,59.91
2022-11-16T10:29:16.090Z,58.30
2022-11-16T10:30:20.790Z,57.40
2022-11-16T10:31:51.093Z,57.97
2022-11-16T10:33:11.289Z,59.45
2022-11-16T10:34:25.667Z,60.79
2022-11-16T10:35:53.631Z,62.11
2022-11-16T10:37:06.893Z,64.13
2022-11-16T10:38:15.159Z,65.11
2022-11-16T10:39:20.563Z,64.68
2022-11-16T10:40:27.444Z,63.65
2022-11-16T10:41:41.268Z,62.16
2022-11-16T10:42:54.830Z,61.06
2022-11-16T10:43:59.370Z,60.19
2022-11-16T10:45:17.592Z,59.20
2022-11-16T10:46:34.602Z,57.65
2022-11-16T10:47:46.979Z,57.68
2022-11-16T10:49:18.579Z,58.66
2022-11-16T10:50:32.368Z,60.03
2022-11-16T10:51:34.435Z,61.15
2022-11-16T10:52:36.167Z,61.72
2022-11-16T10:53:41.707Z,63.31
2022-11-16T10:54:44.562Z,65.11
2022-11-16T10:56:06.728Z,65.50
2022-11-16T10:57:14.390Z,64.57
2022-11-16T10:58:16.145Z,63.45
2022-11-16T10:59:21.556Z,62.27
2022-11-16T11:00:39.742Z,61.32
2022-11-16T11:01:47.972Z,60.15
2022-11-16T11:02:49.725Z,59.16
2022-11-16T11:03:51.407Z,57.95
2022-11-16T11:05:17.985Z,57.51
2022-11-16T11:06:25.226Z,58.40
2022-11-16T11:07:43.922Z,59.51
2022-11-16T11:08:45.745Z,61.07
2022-11-16T11:09:53.437Z,62.26
2022-11-16T11:11:03.174Z,63.88
2022-11-16T11:12:34.685Z,65.10
2022-11-16T11:13:36.941Z,64.53
2022-11-16T11:14:38.749Z,63.52
2022-11-16T11:15:43.061Z,62.39
2022-11-16T11:16:44.750Z,61.25
2022-11-16T11:17:48.952Z,60.31
2022-11-16T11:18:51.450Z,59.49
2022-11-16T11:20:16.271Z,58.39
2022-11-16T11:21:22.860Z,57.47
2022-11-16T11:22:25.029Z,58.11
2022-11-16T11:23:27.884Z,58.93
2022-11-16T11:24:44.109Z,60.22
2022-11-16T11:25:58.865Z,61.38
2022-11-16T11:27:01.471Z,62.51
2022-11-16T11:28:23.250Z,63.82
2022-11-16T11:29:32.576Z,64.87
2022-11-16T11:30:35.871Z,64.29
2022-11-16T11:31:52.532Z,63.25
2022-11-16T11:32:54.623Z,61.93
2022-11-16T11:34:10.093Z,60.91
2022-11-16T11:35:31.340Z,59.91
2022-11-16T11:36:43.592Z,58.61
2022-11-16T11:37:54.917Z,57.38
2022-11-16T11:39:26.329Z,57.70
2022-11-16T11:40:30.712Z,58.86
2022-11-16T11:41:49.664Z,60.16
2022-11-16T11:42:58.117Z,61.11
2022-11-16T11:44:17.102Z,62.08
2022-11-16T11:45:23.198Z,64.01
2022-11-16T11:46:47.539Z,65.21
2022-11-16T11:48:02.753Z,64.71
2022-11-16T11:49:23.473Z,63.59
2022-11-16T11:50:48.008Z,62.12
2022-11-16T11:51:54.150Z,60.89
2022-11-16T11:53:17.214Z,59.94
2022-11-16T11:54:45.633Z,58.61
2022-11-16T11:55:58.143Z,57.32
2022-11-16T11:57:04.598Z,57.76
2022-11-16T11:58:16.146Z,58.96
2022-11-16T11:59:23.813Z,60.33
2022-11-16T12:00:26.181Z,61.26
2022-11-16T12:01:56.063Z,62.15
2022-11-16T12:03:33.583Z,64.54
2022-11-16T12:05:00.268Z,65.38
2022-11-16T12:06:29.728Z,64.28
2022-11-16T12:07:40.255Z,62.74
2022-11-16T12:08:58.461Z,61.58
2022-11-16T12:10:18.788Z,60.44
2022-11-16T12:11:42.139Z,59.51
2022-11-16T12:13:01.590Z,58.05
2022-11-16T12:14:44.913Z,57.42
2022-11-16T12:15:58.505Z,58.52
2022-11-16T12:17:27.680Z,59.63
2022-11-16T12:19:16.984Z,61.48
2022-11-16T12:20:28.881Z,63.88
2022-11-16T12:21:41.215Z,65.08
2022-11-16T12:23:20.504Z,64.73
2022-11-16T12:24:50.143Z,62.94
2022-11-16T12:26:15.726Z,61.28
2022-11-16T12:27:41.112Z,60.00
2022-11-16T12:29:19.124Z,58.92
2022-11-16T12:30:23.736Z,57.35
2022-11-16T12:31:34.397Z,57.49
2022-11-16T12:33:02.032Z,58.69
2022-11-16T12:34:18.137Z,60.24
2022-11-16T12:35:44.478Z,61.48
2022-11-16T12:37:08.882Z,63.59
2022-11-16T12:38:10.481Z,65.01
2022-11-16T12:39:12.186Z,64.66
2022-11-16T12:40:35.360Z,63.76
2022-11-16T12:42:04.449Z,62.26
2022-11-16T12:43:53.364Z,60.65
2022-11-16T12:45:19.469Z,59.03
2022-11-16T12:46:39.357Z,57.58
2022-11-16T12:48:13.453Z,58.00
2022-11-16T12:49:48.725Z,59.61
2022-11-16T12:51:02.520Z,61.09
2022-11-16T12:52:15.204Z,62.50
2022-11-16T12:53:54.564Z,64.31
2022-11-16T12:55:24.940Z,64.85
2022-11-16T12:56:48.860Z,63.72
2022-11-16T12:58:10.363Z,62.12
2022-11-16T12:59:38.610Z,60.79
2022-11-16T13:01:17.322Z,59.40
2022-11-16T13:02:27.963Z,57.49
2022-11-16T13:03:37.838Z,57.52
2022-11-16T13:04:50.596Z,58.08
2022-11-16T13:06:04.517Z,59.29
2022-11-16T13:07:18.597Z,60.84
2022-11-16T13:08:34.130Z,61.94
2022-11-16T13:09:45.973Z,63.14
2022-11-16T13:11:02.042Z,64.89
2022-11-16T13:12:14.195Z,65.01
2022-11-16T13:13:36.421Z,64.05
2022-11-16T13:14:43.068Z,62.77
2022-11-16T13:15:47.811Z,61.26
2022-11-16T13:16:51.349Z,60.23
2022-11-16T13:18:01.692Z,59.34
2022-11-16T13:19:07.316Z,57.87
2022-11-16T13:20:31.651Z,57.36
2022-11-16T13:21:57.154Z,58.15
2022-11-16T13:23:08.020Z,59.37
2022-11-16T13:24:20.272Z,60.68
2022-11-16T13:25:33.986Z,61.88
2022-11-16T13:27:11.984Z,63.65
2022-11-16T13:28:29.375Z,65.16
2022-11-16T13:29:48.084Z,64.31
2022-11-16T13:31:31.609Z,63.12
2022-11-16T13:32:34.804Z,61.37
2022-11-16T13:33:51.029Z,60.41
2022-11-16T13:34:54.599Z,59.30
2022-11-16T13:35:56.831Z,57.86
2022-11-16T13:36:58.648Z,57.22
2022-11-16T13:38:01.115Z,57.68
2022-11-16T13:39:05.459Z,58.32
2022-11-16T13:40:07.096Z,59.52
2022-11-16T13:41:28.494Z,60.39
2022-11-16T13:42:34.141Z,61.44
2022-11-16T13:43:35.937Z,62.75
2022-11-16T13:44:38.014Z,64.60
2022-11-16T13:45:57.484Z,65.50
2022-11-16T13:47:05.882Z,64.93
2022-11-16T13:48:19.872Z,63.59
2022-11-16T13:49:24.250Z,62.18
2022-11-16T13:50:38.135Z,61.13
2022-11-16T13:51:39.998Z,60.03
2022-11-16T13:53:36.465Z,59.09
2022-11-16T13:55:43.138Z,57.88
2022-11-16T13:56:51.469Z,58.92
2022-11-16T13:57:57.299Z,60.28
2022-11-16T13:58:59.434Z,61.48
2022-11-16T14:00:01.111Z,62.33
2022-11-16T14:01:10.710Z,63.87
2022-11-16T14:02:39.821Z,65.10
2022-11-16T14:03:44.147Z,64.77
2022-11-16T14:04:57.843Z,63.61
2022-11-16T14:05:59.589Z,62.20
2022-11-16T14:07:01.852Z,61.17
2022-11-16T14:08:38.408Z,60.25
2022-11-16T14:09:42.677Z,58.66
2022-11-16T14:10:44.798Z,57.37
2022-11-16T14:11:46.589Z,57.43
2022-11-16T14:12:52.696Z,58.25
2022-11-16T14:13:55.223Z,59.50
2022-11-16T14:15:19.402Z,60.51
2022-11-16T14:16:21.530Z,61.67
2022-11-16T14:17:51.158Z,63.15
2022-11-16T14:18:54.835Z,65.22
2022-11-16T14:19:56.936Z,65.26
2022-11-16T14:21:12.248Z,64.45
2022-11-16T14:22:25.569Z,63.07
2022-11-16T14:23:50.537Z,61.72
2022-11-16T14:25:09.031Z,60.42
2022-11-16T14:26:36.141Z,59.56
2022-11-16T14:27:55.743Z,57.88
2022-11-16T14:29:23.222Z,57.50
2022-11-16T14:30:35.577Z,58.59
2022-11-16T14:31:52.306Z,59.74
2022-11-16T14:32:57.365Z,61.14
2022-11-16T14:34:00.911Z,62.48
2022-11-16T14:35:06.641Z,64.10
2022-11-16T14:36:10.826Z,65.16
2022-11-16T14:37:30.247Z,64.93
2022-11-16T14:38:36.641Z,63.69
2022-11-16T14:39:43.537Z,62.58
2022-11-16T14:40:57.795Z,61.36
2022-11-16T14:42:05.920Z,60.20
2022-11-16T14:43:38.645Z,59.41
2022-11-16T14:44:40.864Z,57.65
2022-11-16T14:45:52.050Z,57.52
2022-11-16T14:46:54.309Z,58.14
2022-11-16T14:48:04.352Z,58.82
2022-11-16T14:49:16.105Z,60.23
2022-11-16T14:50:22.993Z,61.54
2022-11-16T14:51:34.922Z,62.80
2022-11-16T14:52:44.470Z,64.81
2022-11-16T14:53:52.674Z,65.46
2022-11-16T14:55:00.644Z,64.88
2022-11-16T14:56:08.307Z,63.79
2022-11-16T14:57:21.672Z,62.74